Time;durP1;ratioP1;P1;durP2;ratioP2;P2;SDS_P1;SDS_P2;PMS_P1;PMS_P2;Temp;Humidity;BMP_temperature;BMP_pressure;BME280_temperature;BME280_humidity;BME280_pressure;Samples;Min_cycle;Max_cycle;Signal;HPM_P1;HPM_P2
2023/09/23 00:01:10;;;;;;;7.75;2.10;;;;;;;26.85;23.38;100613.38;4946903;28;20062;-75
2023/09/23 00:03:41;;;;;;;3.42;1.95;;;;;;;26.81;23.67;100614.44;4949665;28;20059;-73
2023/09/23 00:06:10;;;;;;;6.03;2.40;;;;;;;26.79;23.56;100624.25;4946023;28;20576;-73
2023/09/23 00:08:39;;;;;;;6.00;1.83;;;;;;;26.71;23.75;100615.75;4945787;28;20055;-73
2023/09/23 00:11:10;;;;;;;4.78;2.13;;;;;;;26.66;23.99;100620.34;4946459;28;20043;-72
2023/09/23 00:13:39;;;;;;;5.35;2.47;;;;;;;26.62;23.89;100605.47;4942653;28;20051;-74
2023/09/23 00:16:09;;;;;;;4.80;2.03;;;;;;;26.55;24.20;100610.16;4946810;28;20050;-73
2023/09/23 00:18:39;;;;;;;5.43;2.20;;;;;;;26.53;24.32;100607.53;4941824;28;20062;-73
2023/09/23 00:21:08;;;;;;;4.97;2.38;;;;;;;26.54;24.10;100603.97;4946474;28;20509;-74
2023/09/23 00:23:39;;;;;;;4.10;2.03;;;;;;;26.52;23.71;100612.88;4937572;28;20595;-73
2023/09/23 00:26:10;;;;;;;10.52;2.47;;;;;;;26.38;23.75;100602.81;4944904;28;20505;-73
2023/09/23 00:28:38;;;;;;;3.58;2.30;;;;;;;26.31;24.61;100601.31;4947646;28;20138;-73
2023/09/23 00:31:11;;;;;;;10.88;2.28;;;;;;;26.21;25.08;100605.25;4949001;28;20048;-74
2023/09/23 00:36:15;;;;;;;8.05;2.03;;;;;;;25.88;25.32;100606.47;4751799;26;20482;-74
2023/09/23 00:38:43;;;;;;;9.15;2.15;;;;;;;25.77;24.68;100600.66;4972423;28;20069;-72
2023/09/23 00:41:14;;;;;;;5.93;2.15;;;;;;;25.71;24.94;100604.38;4964181;28;20055;-73
2023/09/23 00:43:43;;;;;;;3.85;1.95;;;;;;;25.68;25.24;100606.28;4954178;28;20067;-74
2023/09/23 00:46:18;;;;;;;3.08;1.90;;;;;;;25.65;24.99;100599.28;4964484;28;20054;-73
2023/09/23 00:48:48;;;;;;;5.10;2.03;;;;;;;25.62;25.18;100596.75;4963526;28;20564;-73
2023/09/23 00:51:18;;;;;;;5.43;2.00;;;;;;;25.56;25.45;100596.97;4962909;28;20393;-73
2023/09/23 00:53:47;;;;;;;6.25;2.17;;;;;;;25.53;25.65;100599.72;4964006;28;20100;-73
2023/09/23 00:56:20;;;;;;;6.18;2.80;;;;;;;25.54;26.05;100608.53;4956918;28;20062;-73
2023/09/23 00:58:50;;;;;;;5.65;2.20;;;;;;;25.49;26.82;100600.75;4965333;28;20051;-74
2023/09/23 01:01:19;;;;;;;8.95;2.05;;;;;;;25.45;26.75;100605.31;4971927;28;20077;-74
2023/09/23 01:03:47;;;;;;;4.70;2.17;;;;;;;25.34;26.65;100591.56;4964315;28;20548;-74
2023/09/23 01:06:21;;;;;;;4.95;2.40;;;;;;;25.37;25.61;100604.69;4959757;28;20070;-72
2023/09/23 01:08:51;;;;;;;9.60;2.70;;;;;;;25.24;26.77;100606.00;4963548;28;20066;-73
2023/09/23 01:11:22;;;;;;;4.88;2.28;;;;;;;25.09;26.91;100610.03;4965950;28;20050;-73
2023/09/23 01:13:51;;;;;;;9.88;2.53;;;;;;;25.02;29.17;100606.72;4967249;28;20050;-74
2023/09/23 01:16:21;;;;;;;6.82;2.60;;;;;;;24.93;27.97;100611.44;4969906;28;20149;-72
2023/09/23 01:18:50;;;;;;;7.80;2.35;;;;;;;24.84;26.82;100604.66;4974171;28;20181;-74
2023/09/23 01:21:21;;;;;;;3.80;1.90;;;;;;;24.77;29.88;100611.06;4964736;28;20043;-74
2023/09/23 01:23:53;;;;;;;3.80;2.10;;;;;;;24.69;30.71;100608.63;4975553;28;20050;-72
2023/09/23 01:26:24;;;;;;;5.57;2.25;;;;;;;24.56;30.90;100608.19;4963153;28;20138;-75
2023/09/23 01:28:53;;;;;;;7.05;2.42;;;;;;;24.42;30.67;100607.72;4961531;28;20133;-74
2023/09/23 01:31:22;;;;;;;3.83;2.17;;;;;;;24.32;30.73;100607.09;4950452;28;20057;-74
2023/09/23 01:33:53;;;;;;;7.32;2.00;;;;;;;24.22;30.77;100610.94;4957775;28;20082;-74
2023/09/23 01:36:27;;;;;;;4.70;2.13;;;;;;;24.09;31.43;100607.75;4954294;28;20062;-74
2023/09/23 01:38:57;;;;;;;3.90;2.33;;;;;;;23.95;33.48;100613.44;4946424;28;20054;-74
2023/09/23 01:41:44;;;;;;;7.93;2.30;;;;;;;23.78;32.75;100606.00;4950727;28;20048;-74
2023/09/23 01:44:14;;;;;;;5.35;2.13;;;;;;;23.63;32.44;100598.44;4950613;28;20533;-74
2023/09/23 01:46:42;;;;;;;5.05;2.40;;;;;;;23.46;33.57;100593.63;4950955;28;20054;-73
2023/09/23 01:49:11;;;;;;;4.30;2.20;;;;;;;23.34;32.63;100596.56;4954935;28;20171;-75
2023/09/23 01:51:40;;;;;;;5.78;2.00;;;;;;;23.21;32.56;100599.53;4949875;28;20492;-74
2023/09/23 01:54:10;;;;;;;4.45;2.28;;;;;;;23.10;33.08;100593.66;4961043;28;20051;-74
2023/09/23 01:56:39;;;;;;;5.60;2.38;;;;;;;23.00;34.22;100594.81;4947836;28;20059;-75
2023/09/23 01:59:09;;;;;;;6.65;2.40;;;;;;;22.86;34.12;100595.13;4942454;28;20133;-73
2023/09/23 02:01:40;;;;;;;4.25;2.05;;;;;;;22.74;34.98;100593.59;4945333;28;20066;-73
2023/09/23 02:04:09;;;;;;;5.50;2.10;;;;;;;22.59;37.00;100589.56;4949340;28;20063;-73
2023/09/23 02:06:42;;;;;;;4.35;2.10;;;;;;;22.43;36.28;100600.50;4946351;28;20047;-72
2023/09/23 02:09:13;;;;;;;6.88;2.90;;;;;;;22.28;36.44;100596.41;4953726;28;20047;-73
2023/09/23 02:11:41;;;;;;;3.42;1.92;;;;;;;22.15;38.20;100590.47;4950362;28;20069;-72
2023/09/23 02:14:12;;;;;;;7.90;2.60;;;;;;;22.04;38.87;100592.50;4939890;28;20062;-74
2023/09/23 02:16:42;;;;;;;3.88;2.10;;;;;;;21.92;38.91;100599.75;4948712;28;20062;-73
2023/09/23 02:19:10;;;;;;;4.20;2.38;;;;;;;21.84;37.60;100599.03;4951282;28;20503;-75
2023/09/23 02:21:39;;;;;;;4.63;2.00;;;;;;;21.79;36.70;100598.25;4946188;28;20043;-76
2023/09/23 02:24:10;;;;;;;4.82;1.98;;;;;;;21.71;36.56;100594.88;4945944;28;20057;-74
2023/09/23 02:26:41;;;;;;;8.13;2.60;;;;;;;21.64;36.71;100594.13;4944955;28;20062;-73
2023/09/23 02:29:10;;;;;;;4.80;2.38;;;;;;;21.57;37.21;100607.44;4943885;28;20056;-73
2023/09/23 02:31:39;;;;;;;8.10;2.53;;;;;;;21.49;37.14;100600.56;4947316;28;20048;-75
2023/09/23 02:34:10;;;;;;;8.18;2.60;;;;;;;21.38;37.53;100605.09;4943257;28;20051;-75
2023/09/23 02:36:42;;;;;;;5.85;2.15;;;;;;;21.27;37.58;100609.69;4937835;28;20055;-74
2023/09/23 02:39:15;;;;;;;7.03;2.78;;;;;;;21.16;37.62;100614.25;4945983;28;20424;-75
2023/09/23 02:41:46;;;;;;;9.43;2.58;;;;;;;21.08;37.36;100610.00;4948668;28;20087;-75
2023/09/23 02:44:18;;;;;;;9.88;2.97;;;;;;;20.98;37.92;100618.94;4954811;28;20398;-74
2023/09/23 02:46:47;;;;;;;5.75;2.58;;;;;;;20.87;38.00;100612.97;4946916;28;20058;-75
2023/09/23 02:49:16;;;;;;;8.95;3.45;;;;;;;20.76;38.33;100622.78;4951493;28;20155;-75
2023/09/23 02:51:45;;;;;;;7.00;2.63;;;;;;;20.64;38.28;100624.69;4950999;28;20115;-75
2023/09/23 02:54:15;;;;;;;8.57;2.65;;;;;;;20.57;38.58;100632.66;4950399;28;20060;-77
2023/09/23 02:56:47;;;;;;;13.20;2.97;;;;;;;20.51;39.69;100638.84;4947565;28;20501;-73
2023/09/23 02:59:21;;;;;;;4.85;2.97;;;;;;;20.46;38.74;100645.94;4952412;28;20478;-75
2023/09/23 03:01:51;;;;;;;9.43;2.90;;;;;;;20.40;39.29;100646.00;4952954;28;20071;-72
2023/09/23 03:04:23;;;;;;;9.70;3.33;;;;;;;20.34;39.03;100656.59;4954867;28;20044;-73
2023/09/23 03:06:55;;;;;;;7.07;2.10;;;;;;;20.24;42.94;100656.69;4957999;28;20066;-73
2023/09/23 03:09:25;;;;;;;6.13;2.20;;;;;;;20.13;43.76;100660.34;4952776;28;20051;-73
2023/09/23 03:12:03;;;;;;;7.40;2.58;;;;;;;20.05;43.60;100655.19;4947712;28;20114;-81
2023/09/23 03:14:40;;;;;;;5.65;2.70;;;;;;;19.98;42.01;100659.63;4948233;28;20051;-77
2023/09/23 03:17:12;;;;;;;6.68;2.67;;;;;;;19.96;42.35;100661.41;4952647;28;20062;-76
2023/09/23 03:19:43;;;;;;;;;;;;;;;19.91;42.52;100657.97;4952118;28;20126;-75
2023/09/23 03:22:13;;;;;;;10.55;2.70;;;;;;;19.84;42.57;100664.16;4964503;28;19922;-78
2023/09/23 03:24:41;;;;;;;8.15;2.88;;;;;;;19.77;42.75;100668.59;4950832;28;20503;-75
2023/09/23 03:27:16;;;;;;;13.05;2.72;;;;;;;19.67;43.08;100665.13;4959688;28;20057;-77
2023/09/23 03:29:49;;;;;;;11.52;2.90;;;;;;;19.62;43.13;100661.69;4954455;28;20051;-76
2023/09/23 03:32:18;;;;;;;8.43;2.67;;;;;;;19.55;43.69;100651.28;4955694;28;20047;-77
2023/09/23 03:34:50;;;;;;;12.68;3.10;;;;;;;19.45;42.66;100648.75;4955158;28;20047;-78
2023/09/23 03:37:19;;;;;;;4.88;2.83;;;;;;;19.39;42.96;100651.41;4948548;28;20131;-77
2023/09/23 03:39:48;;;;;;;7.80;3.20;;;;;;;19.32;42.55;100652.34;4957907;28;20046;-76
2023/09/23 03:42:18;;;;;;;8.82;2.40;;;;;;;19.22;42.63;100640.19;4950630;28;20043;-76
2023/09/23 03:44:47;;;;;;;5.68;2.35;;;;;;;19.19;43.10;100642.81;4949859;28;20061;-75
2023/09/23 03:47:15;;;;;;;10.73;2.67;;;;;;;19.18;43.83;100648.97;4963821;28;20050;-75
2023/09/23 03:49:44;;;;;;;13.15;3.20;;;;;;;19.13;42.31;100640.28;4952511;28;20047;-77
2023/09/23 03:52:13;;;;;;;10.13;2.30;;;;;;;19.09;42.71;100641.16;4951880;28;20472;-77
2023/09/23 03:54:42;;;;;;;4.45;2.42;;;;;;;19.05;42.45;100641.16;4956740;28;20043;-78
2023/09/23 03:57:11;;;;;;;6.63;2.33;;;;;;;19.01;42.85;100635.97;4954607;28;20047;-77
2023/09/23 03:59:41;;;;;;;3.67;1.92;;;;;;;19.00;43.61;100639.47;4953690;28;20051;-78
2023/09/23 04:02:12;;;;;;;6.75;2.15;;;;;;;19.00;46.87;100639.47;4955836;28;20062;-79
2023/09/23 04:04:41;;;;;;;6.25;2.20;;;;;;;18.98;46.04;100642.09;4956026;28;20047;-77
2023/09/23 04:07:10;;;;;;;5.57;2.05;;;;;;;18.96;46.01;100648.22;4954934;28;20545;-77
2023/09/23 04:09:39;;;;;;;11.02;2.15;;;;;;;18.91;46.48;100655.25;4954633;28;20051;-78
2023/09/23 04:12:10;;;;;;;7.60;2.33;;;;;;;18.90;47.53;100659.66;4955273;28;20448;-76
2023/09/23 04:14:42;;;;;;;5.68;2.15;;;;;;;18.93;49.03;100671.88;4947675;28;20047;-78
2023/09/23 04:17:12;;;;;;;6.45;2.15;;;;;;;18.91;45.54;100668.38;4956457;28;20154;-77
2023/09/23 04:19:40;;;;;;;10.18;2.30;;;;;;;18.91;47.35;100665.75;4953351;28;20224;-76
2023/09/23 04:22:11;;;;;;;3.70;1.80;;;;;;;18.90;48.21;100670.13;4957056;28;20055;-76
2023/09/23 04:24:39;;;;;;;10.38;2.70;;;;;;;18.87;45.91;100667.50;4950586;28;20510;-78
2023/09/23 04:27:08;;;;;;;7.63;2.75;;;;;;;18.83;46.44;100665.81;4958001;28;20054;-76
2023/09/23 04:29:37;;;;;;;5.97;2.60;;;;;;;18.77;46.52;100657.97;4951375;28;20087;-76
2023/09/23 04:32:07;;;;;;;12.88;3.40;;;;;;;18.76;47.52;100669.28;4951631;28;20060;-77
2023/09/23 04:34:36;;;;;;;8.70;1.70;;;;;;;18.67;46.67;100654.50;4956549;28;20084;-78
2023/09/23 04:37:05;;;;;;;5.75;2.33;;;;;;;18.70;45.45;100666.72;4954271;28;20413;-77
2023/09/23 04:39:34;;;;;;;7.90;2.38;;;;;;;18.66;46.56;100670.22;4952414;28;20074;-76
2023/09/23 04:42:03;;;;;;;7.38;3.45;;;;;;;18.61;46.37;100667.63;4948981;28;20051;-75
2023/09/23 04:44:34;;;;;;;13.18;3.17;;;;;;;18.57;46.06;100666.75;4955293;28;20039;-76
2023/09/23 04:47:03;;;;;;;5.78;2.15;;;;;;;18.54;45.52;100656.31;4951559;28;20055;-76
2023/09/23 04:49:33;;;;;;;5.90;2.33;;;;;;;18.49;45.57;100662.47;4951255;28;20051;-75
2023/09/23 04:52:03;;;;;;;8.88;2.80;;;;;;;18.51;45.87;100677.28;4952455;28;20187;-76
2023/09/23 04:54:33;;;;;;;8.95;2.67;;;;;;;18.50;45.81;100675.53;4945323;28;20405;-72
2023/09/23 04:57:09;;;;;;;14.00;3.40;;;;;;;18.39;45.81;100679.94;4951442;28;20050;-74
2023/09/23 04:59:38;;;;;;;14.20;3.17;;;;;;;18.25;47.13;100668.66;4945053;28;20663;-75
2023/09/23 05:02:07;;;;;;;9.35;3.80;;;;;;;18.12;48.48;100667.81;4952784;28;20460;-75
2023/09/23 05:04:37;;;;;;;9.00;2.85;;;;;;;18.08;48.57;100676.56;4949226;28;20051;-77
2023/09/23 05:07:07;;;;;;;8.20;2.63;;;;;;;17.98;48.12;100689.69;4950761;28;20476;-73
2023/09/23 05:09:37;;;;;;;9.75;2.72;;;;;;;17.93;48.25;100693.16;4948791;28;20146;-72
2023/09/23 05:12:08;;;;;;;7.32;3.00;;;;;;;17.95;48.77;100691.41;4952759;28;20051;-78
2023/09/23 05:14:36;;;;;;;14.05;2.65;;;;;;;17.93;50.51;100704.50;4947517;28;20051;-79
2023/09/23 05:17:05;;;;;;;6.60;2.50;;;;;;;17.93;52.63;100703.63;4949484;28;20497;-80
2023/09/23 05:19:36;;;;;;;12.95;2.53;;;;;;;17.92;50.61;100709.75;4959135;28;20055;-81
2023/09/23 05:22:05;;;;;;;12.57;2.22;;;;;;;17.92;50.14;100707.16;4952938;28;20058;-85
2023/09/23 05:24:37;;;;;;;8.50;2.30;;;;;;;17.91;50.45;100702.75;4959227;28;20427;-85
2023/09/23 05:27:06;;;;;;;;;;;;;;;17.91;52.28;100711.53;4947203;28;20117;-84
2023/09/23 05:29:37;;;;;;;7.85;2.42;;;;;;;17.89;54.50;100715.88;4950853;28;19922;-84
2023/09/23 05:32:06;;;;;;;9.93;2.08;;;;;;;17.88;50.39;100723.72;4943943;28;20051;-83
2023/09/23 05:34:38;;;;;;;6.68;2.60;;;;;;;17.84;52.13;100728.06;4945831;28;20525;-81
2023/09/23 05:37:12;;;;;;;9.77;2.30;;;;;;;17.80;54.32;100734.19;4938658;28;20477;-83
2023/09/23 05:39:45;;;;;;;5.43;2.08;;;;;;;17.76;52.56;100733.28;4934085;28;20086;-79
2023/09/23 05:42:17;;;;;;;6.50;2.80;;;;;;;17.74;53.65;100735.03;4930283;28;20127;-83
2023/09/23 05:44:48;;;;;;;10.70;2.07;;;;;;;17.70;52.45;100728.03;4933985;28;20545;-79
2023/09/23 05:47:19;;;;;;;9.30;2.88;;;;;;;17.62;52.02;100732.44;4927398;28;20437;-79
2023/09/23 05:49:50;;;;;;;10.15;2.47;;;;;;;17.61;52.88;100730.66;4925528;29;20103;-79
2023/09/23 05:52:19;;;;;;;6.00;2.30;;;;;;;17.59;52.62;100737.63;4923043;28;20044;-83
2023/09/23 05:54:50;;;;;;;8.27;2.30;;;;;;;17.58;51.76;100746.38;4928557;29;20062;-82
2023/09/23 05:57:21;;;;;;;4.82;2.75;;;;;;;17.56;52.12;100737.66;4930487;28;20075;-83
2023/09/23 05:59:50;;;;;;;8.15;2.28;;;;;;;17.53;51.03;100750.75;4932439;29;20114;-79
2023/09/23 06:02:18;;;;;;;8.00;2.15;;;;;;;17.48;50.68;100737.66;4935195;28;20505;-78
2023/09/23 06:04:47;;;;;;;4.38;1.90;;;;;;;17.47;52.43;100735.03;4925892;28;20051;-80
2023/09/23 06:07:19;;;;;;;10.38;2.40;;;;;;;17.42;52.32;100747.25;4931374;28;20063;-80
2023/09/23 06:09:47;;;;;;;;;;;;;;;17.37;53.31;100761.16;4926944;28;20052;-77
2023/09/23 06:12:16;;;;;;;4.55;2.30;;;;;;;17.34;52.27;100761.19;4921017;29;19926;-78
2023/09/23 06:14:45;;;;;;;6.10;2.75;;;;;;;17.35;51.92;100765.53;4925023;29;20058;-80
2023/09/23 06:17:14;;;;;;;4.88;2.25;;;;;;;17.30;52.37;100777.72;4929612;28;21066;-80
2023/09/23 06:19:42;;;;;;;5.95;2.20;;;;;;;17.23;52.38;100783.81;4924824;29;20070;-80
2023/09/23 06:22:11;;;;;;;10.52;2.28;;;;;;;17.09;55.51;100757.63;4930092;28;20103;-80
2023/09/23 06:24:41;;;;;;;6.30;2.03;;;;;;;17.07;55.35;100759.38;4938970;28;20489;-82
2023/09/23 06:27:10;;;;;;;6.70;2.47;;;;;;;17.03;55.86;100764.59;4932562;28;20055;-82
2023/09/23 06:29:38;;;;;;;7.72;2.08;;;;;;;16.99;54.97;100773.28;4935536;28;20055;-83
2023/09/23 06:32:07;;;;;;;3.55;1.90;;;;;;;16.93;54.25;100769.78;4920040;29;20148;-81
2023/09/23 06:34:36;;;;;;;5.25;2.75;;;;;;;16.90;55.35;100766.25;4925873;28;20119;-82
2023/09/23 06:37:05;;;;;;;5.93;2.60;;;;;;;16.88;54.83;100754.94;4947910;28;20082;-83
2023/09/23 06:39:33;;;;;;;7.13;2.17;;;;;;;16.87;54.53;100764.53;4952515;28;20698;-84
2023/09/23 06:42:04;;;;;;;5.63;1.88;;;;;;;16.86;54.18;100762.78;4953082;28;20055;-82
2023/09/23 06:44:34;;;;;;;6.25;2.40;;;;;;;16.87;53.31;100763.66;4958718;28;20044;-83
2023/09/23 06:47:04;;;;;;;7.60;1.92;;;;;;;16.83;53.81;100747.06;4947648;28;20083;-83
2023/09/23 06:49:32;;;;;;;5.30;1.98;;;;;;;16.83;55.96;100749.69;4947397;28;20564;-83
2023/09/23 06:52:01;;;;;;;5.70;1.92;;;;;;;16.83;54.87;100741.84;4954892;28;20114;-83
2023/09/23 06:54:31;;;;;;;6.43;1.70;;;;;;;16.79;53.86;100745.34;4952847;28;20052;-84
2023/09/23 06:57:00;;;;;;;4.68;2.08;;;;;;;16.81;55.42;100748.81;4962353;28;20051;-84
2023/09/23 06:59:30;;;;;;;2.58;1.70;;;;;;;16.76;53.95;100740.06;4960261;28;20058;-84
2023/09/23 07:01:58;;;;;;;2.88;1.80;;;;;;;16.80;53.45;100743.59;4968576;28;20066;-84
2023/09/23 07:04:30;;;;;;;6.38;1.90;;;;;;;16.80;52.62;100751.44;4969520;28;20065;-84
2023/09/23 07:07:00;;;;;;;5.57;2.22;;;;;;;16.76;52.94;100745.28;4973200;28;20100;-84
2023/09/23 07:09:28;;;;;;;4.03;1.80;;;;;;;16.75;53.26;100751.38;4972586;28;20098;-84
2023/09/23 07:11:57;;;;;;;3.35;1.73;;;;;;;16.72;53.05;100749.63;4972124;28;20528;-85
2023/09/23 07:14:26;;;;;;;5.90;2.13;;;;;;;16.71;53.59;100752.22;4965555;28;20490;-83
2023/09/23 07:17:03;;;;;;;2.42;1.50;;;;;;;16.69;54.16;100752.22;4970528;28;20051;-84
2023/09/23 07:19:37;;;;;;;4.30;1.75;;;;;;;16.68;52.21;100747.88;4965717;28;20051;-84
2023/09/23 07:22:05;;;;;;;3.72;1.48;;;;;;;16.63;52.09;100744.38;4970273;28;20062;-83
2023/09/23 07:24:39;;;;;;;5.80;1.48;;;;;;;16.65;52.28;100746.97;4979821;28;20543;-85
2023/09/23 07:27:08;;;;;;;5.80;1.70;;;;;;;16.61;54.60;100753.94;4963829;28;20370;-84
2023/09/23 07:29:36;;;;;;;6.47;1.65;;;;;;;16.57;55.27;100754.78;4972099;28;20065;-85
2023/09/23 07:32:11;;;;;;;3.33;1.55;;;;;;;16.57;54.61;100748.69;4971246;28;20039;-83
2023/09/23 07:34:48;;;;;;;1.50;1.08;;;;;;;16.52;52.74;100751.28;4972406;28;20070;-84
2023/09/23 07:37:20;;;;;;;7.03;1.13;;;;;;;16.46;52.45;100759.06;4966200;29;20055;-84
2023/09/23 07:39:48;;;;;;;2.23;1.17;;;;;;;16.44;52.90;100766.03;4968872;28;20051;-84
2023/09/23 07:42:17;;;;;;;2.83;1.30;;;;;;;16.38;52.92;100763.38;4972169;28;20054;-83
2023/09/23 07:44:48;;;;;;;3.85;1.40;;;;;;;16.30;52.96;100764.19;4975483;28;20051;-83
2023/09/23 07:47:18;;;;;;;6.57;1.40;;;;;;;16.27;52.58;100764.19;4973195;28;20059;-82
2023/09/23 07:49:47;;;;;;;1.85;1.38;;;;;;;16.22;52.98;100768.50;4963304;28;20067;-85
2023/09/23 07:52:15;;;;;;;4.47;1.55;;;;;;;16.19;52.72;100776.31;4965104;28;20047;-84
2023/09/23 07:54:44;;;;;;;4.13;1.90;;;;;;;16.15;52.42;100776.28;4963945;28;20634;-84
2023/09/23 07:57:13;;;;;;;3.47;1.60;;;;;;;16.12;53.28;100772.78;4972970;28;20059;-85
2023/09/23 07:59:41;;;;;;;2.67;1.17;;;;;;;16.10;52.49;100782.38;4970601;28;20146;-84
2023/09/23 08:02:13;;;;;;;4.15;1.50;;;;;;;16.09;52.72;100787.56;4971770;28;20044;-86
2023/09/23 08:04:43;;;;;;;4.00;1.63;;;;;;;16.06;53.01;100783.19;4968240;28;20047;-85
2023/09/23 08:07:12;;;;;;;2.60;1.40;;;;;;;16.04;53.15;100784.91;4967013;28;20043;-85
2023/09/23 08:09:41;;;;;;;5.45;1.80;;;;;;;16.01;53.21;100779.69;4970555;28;20047;-84
2023/09/23 08:12:10;;;;;;;2.95;1.35;;;;;;;16.00;53.81;100777.91;4980025;28;20047;-84
2023/09/23 08:14:52;;;;;;;;;;;;;;;;;;;;;
2023/09/23 08:17:20;;;;;;;4.90;2.13;;;;;;;15.96;54.16;100797.03;4964573;28;20458;-85
2023/09/23 08:19:53;;;;;;;3.90;1.75;;;;;;;15.95;54.69;100795.28;4982220;28;20050;-85
2023/09/23 08:22:22;;;;;;;4.60;1.70;;;;;;;15.96;55.11;100796.16;4967138;29;20048;-84
2023/09/23 08:24:56;;;;;;;2.70;1.40;;;;;;;15.92;56.71;100795.28;4970100;28;20071;-85
2023/09/23 08:27:27;;;;;;;3.17;2.00;;;;;;;15.88;55.99;100794.34;4968172;28;20055;-86
2023/09/23 08:29:57;;;;;;;3.20;1.70;;;;;;;15.89;56.85;100795.22;4973868;28;20038;-85
2023/09/23 08:32:29;;;;;;;3.30;1.88;;;;;;;15.85;56.62;100796.06;4982788;28;20107;-83
2023/09/23 08:35:02;;;;;;;3.50;1.55;;;;;;;15.83;57.50;100792.59;4984044;28;20038;-86
2023/09/23 08:37:31;;;;;;;4.35;1.73;;;;;;;15.74;58.23;100779.47;4976215;28;20046;-85
2023/09/23 08:40:10;;;;;;;4.85;1.65;;;;;;;15.73;60.23;100788.13;4970450;28;20055;-84
2023/09/23 08:42:42;;;;;;;5.88;1.63;;;;;;;15.66;58.93;100785.44;4968165;28;20156;-81
2023/09/23 08:45:11;;;;;;;5.90;1.52;;;;;;;15.63;58.99;100787.16;4961316;28;20052;-84
2023/09/23 08:47:40;;;;;;;2.25;1.33;;;;;;;15.58;58.59;100789.72;4977172;28;20461;-80
2023/09/23 08:50:19;;;;;;;4.10;1.58;;;;;;;15.53;58.01;100796.63;4971636;28;20054;-84
2023/09/23 08:52:48;;;;;;;3.42;1.65;;;;;;;15.53;58.90;100807.06;4951249;28;20055;-84
2023/09/23 08:55:21;;;;;;;2.20;1.63;;;;;;;15.53;58.81;100796.63;4955525;28;20262;-84
2023/09/23 08:57:50;;;;;;;2.17;1.38;;;;;;;15.53;58.59;100798.34;4956322;28;20058;-83
2023/09/23 09:00:25;;;;;;;1.95;1.23;;;;;;;15.53;58.84;100807.06;4955451;28;20548;-84
2023/09/23 09:02:53;;;;;;;6.30;1.40;;;;;;;15.53;59.37;100801.84;4948847;28;20138;-84
2023/09/23 09:05:24;;;;;;;4.57;1.60;;;;;;;15.54;59.25;100807.94;4962431;28;20058;-85
2023/09/23 09:07:55;;;;;;;2.53;1.50;;;;;;;15.55;59.32;100812.25;4963092;28;20059;-84
2023/09/23 09:10:27;;;;;;;4.57;1.67;;;;;;;15.50;59.19;100809.63;4960438;28;20047;-83
2023/09/23 09:12:55;;;;;;;5.13;1.77;;;;;;;15.49;59.84;100802.66;4954360;28;20082;-84
2023/09/23 09:15:24;;;;;;;7.47;1.90;;;;;;;15.48;60.04;100808.72;4957518;28;20097;-86
2023/09/23 09:17:53;;;;;;;3.47;1.35;;;;;;;15.46;59.44;100800.00;4956561;28;20062;-84
2023/09/23 09:20:25;;;;;;;4.65;1.90;;;;;;;15.45;60.27;100798.28;4960761;28;20047;-84
2023/09/23 09:22:54;;;;;;;2.75;1.95;;;;;;;15.45;59.99;100793.06;4959834;28;20442;-84
2023/09/23 09:25:22;;;;;;;2.70;1.63;;;;;;;15.42;61.32;100798.25;4950094;28;20051;-83
2023/09/23 09:27:52;;;;;;;3.67;1.33;;;;;;;15.32;62.06;100791.16;4960910;28;20122;-85
2023/09/23 09:30:21;;;;;;;3.92;1.50;;;;;;;15.31;63.04;100795.53;4959493;28;20054;-83
2023/09/23 09:32:50;;;;;;;4.10;1.88;;;;;;;15.25;62.45;100783.28;4952978;28;20044;-85
2023/09/23 09:35:19;;;;;;;9.45;1.95;;;;;;;15.20;61.79;100777.16;4955379;28;20408;-84
2023/09/23 09:37:51;;;;;;;2.97;1.55;;;;;;;15.21;61.88;100783.22;4958083;28;20469;-85
2023/09/23 09:40:21;;;;;;;4.05;1.60;;;;;;;15.19;62.04;100772.81;4954936;28;20394;-84
2023/09/23 09:42:54;;;;;;;3.03;1.63;;;;;;;15.20;61.71;100781.50;4965938;28;20043;-84
2023/09/23 09:45:23;;;;;;;3.08;1.65;;;;;;;15.19;61.54;100775.41;4963936;28;20101;-82
2023/09/23 09:47:54;;;;;;;2.35;1.50;;;;;;;15.20;61.97;100777.16;4953539;28;20067;-84
2023/09/23 09:50:25;;;;;;;2.38;1.77;;;;;;;15.19;61.42;100780.63;4958346;28;20057;-84
2023/09/23 09:52:55;;;;;;;6.25;1.92;;;;;;;15.17;62.38;100777.13;4965044;28;20058;-82
2023/09/23 09:55:33;;;;;;;2.78;1.52;;;;;;;15.17;62.19;100787.56;4969579;28;20051;-82
2023/09/23 09:58:02;;;;;;;3.33;1.80;;;;;;;15.18;62.17;100785.81;4971972;28;20047;-83
2023/09/23 10:00:42;;;;;;;4.88;1.90;;;;;;;15.17;62.80;100787.56;4967969;28;20047;-83
2023/09/23 10:03:13;;;;;;;4.18;1.77;;;;;;;15.16;62.62;100780.56;4963408;28;20086;-83
2023/09/23 10:05:46;;;;;;;5.35;1.92;;;;;;;15.13;63.76;100775.34;4967925;28;20050;-83
2023/09/23 10:08:24;;;;;;;3.25;1.95;;;;;;;15.10;63.15;100780.53;4965330;28;20053;-83
2023/09/23 10:11:02;;;;;;;3.67;2.13;;;;;;;15.09;63.87;100783.97;4960391;28;20050;-83
2023/09/23 10:13:31;;;;;;;2.65;1.38;;;;;;;15.06;64.03;100778.72;4961393;28;20437;-83
2023/09/23 10:16:05;;;;;;;2.83;1.83;;;;;;;15.06;64.41;100778.72;4962059;28;20066;-83
2023/09/23 10:18:39;;;;;;;3.60;1.27;;;;;;;15.02;65.21;100769.13;4961283;28;20052;-84
2023/09/23 10:21:23;;;;;;;3.10;1.60;;;;;;;15.02;65.17;100772.59;4968090;28;20051;-83
2023/09/23 10:23:57;;;;;;;5.47;2.33;;;;;;;15.00;66.04;100778.66;4968262;28;20074;-83
2023/09/23 10:26:33;;;;;;;5.50;1.67;;;;;;;14.93;66.25;100767.28;4959894;28;20133;-82
2023/09/23 10:29:03;;;;;;;2.83;1.77;;;;;;;14.97;66.98;100773.41;4968284;28;21058;-82
2023/09/23 10:31:36;;;;;;;2.45;1.63;;;;;;;14.96;66.89;100782.09;4975075;28;20072;-83
2023/09/23 10:34:06;;;;;;;;;;;;;;;14.94;67.65;100789.03;4967076;28;20063;-82
2023/09/23 10:36:37;;;;;;;7.32;2.45;;;;;;;14.93;68.20;100774.22;4971889;28;19933;-80
2023/09/23 10:39:20;;;;;;;4.15;2.00;;;;;;;14.92;68.28;100772.50;4964933;28;20085;-82
2023/09/23 10:41:54;;;;;;;;;;;;;;;14.91;68.38;100773.34;4961870;28;20059;-83
2023/09/23 10:44:26;;;;;;;5.70;2.05;;;;;;;14.86;69.47;100774.16;4960993;28;19927;-82
2023/09/23 10:46:55;;;;;;;4.47;2.05;;;;;;;14.83;69.46;100771.50;4964140;28;20114;-81
2023/09/23 10:49:24;;;;;;;6.18;2.10;;;;;;;14.83;69.50;100774.13;4961649;28;20051;-81
2023/09/23 10:51:57;;;;;;;4.43;2.10;;;;;;;14.82;69.29;100774.09;4959625;28;20107;-81
2023/09/23 10:54:28;;;;;;;4.90;2.10;;;;;;;14.80;69.16;100781.91;4969542;28;20051;-81
2023/09/23 10:56:57;;;;;;;4.63;1.83;;;;;;;14.79;69.55;100787.09;4961121;28;20435;-82
2023/09/23 10:59:26;;;;;;;6.25;1.80;;;;;;;14.79;69.65;100787.09;4959081;28;20035;-84
2023/09/23 11:01:57;;;;;;;4.72;2.13;;;;;;;14.76;70.20;100787.91;4961742;28;20513;-82
2023/09/23 11:04:26;;;;;;;7.35;2.13;;;;;;;14.74;70.24;100788.75;4965185;28;20542;-84
2023/09/23 11:06:55;;;;;;;2.88;1.63;;;;;;;14.76;71.21;100800.94;4968665;28;20058;-84
2023/09/23 11:09:26;;;;;;;3.28;1.98;;;;;;;14.74;71.01;100797.44;4962197;28;20057;-85
2023/09/23 11:11:56;;;;;;;4.40;2.22;;;;;;;14.77;71.81;100792.25;4971628;28;20048;-84
2023/09/23 11:14:28;;;;;;;3.45;2.17;;;;;;;14.78;71.50;100799.25;4967837;28;20056;-83
2023/09/23 11:16:56;;;;;;;5.68;2.50;;;;;;;14.78;71.52;100793.16;4979436;28;20078;-84
2023/09/23 11:19:28;;;;;;;3.88;2.47;;;;;;;14.76;71.74;100790.53;4982692;28;20079;-84
2023/09/23 11:22:07;;;;;;;5.38;2.30;;;;;;;14.76;72.13;100790.53;4976425;28;20138;-84
2023/09/23 11:24:41;;;;;;;7.93;2.67;;;;;;;14.72;72.45;100791.34;4964303;28;20053;-84
2023/09/23 11:27:10;;;;;;;6.20;2.90;;;;;;;14.77;72.71;100797.47;4965488;28;20058;-82
2023/09/23 11:29:45;;;;;;;4.70;2.65;;;;;;;14.76;72.86;100794.88;4976552;28;20089;-84
2023/09/23 11:32:15;;;;;;;3.13;2.17;;;;;;;14.75;72.87;100788.78;4974857;28;20047;-83
2023/09/23 11:34:44;;;;;;;4.10;2.20;;;;;;;14.74;73.13;100788.75;4968858;28;20075;-84
2023/09/23 11:37:12;;;;;;;4.53;2.55;;;;;;;14.72;73.53;100787.88;4989219;28;20090;-82
2023/09/23 11:39:51;;;;;;;5.28;2.35;;;;;;;14.72;74.37;100791.34;4976825;28;20051;-84
2023/09/23 11:42:20;;;;;;;6.47;2.90;;;;;;;14.68;74.47;100786.94;4959669;28;20134;-85
2023/09/23 11:44:49;;;;;;;8.45;2.97;;;;;;;14.69;73.91;100793.91;4967953;28;20054;-83
2023/09/23 11:47:30;;;;;;;;;;;;;;;;;;;;;